createdAt,value
2018-04-23T00:02:08.260Z,21.50
2018-04-23T00:04:36.515Z,21.50
2018-04-23T00:07:05.524Z,21.60
2018-04-23T00:09:33.784Z,21.50
2018-04-23T00:12:02.821Z,21.40
2018-04-23T00:14:31.051Z,21.40
2018-04-23T00:16:59.320Z,21.50
2018-04-23T00:19:28.321Z,21.40
2018-04-23T00:21:57.338Z,21.40
2018-04-23T00:24:25.608Z,21.40
2018-04-23T00:26:53.874Z,21.40
2018-04-23T00:29:22.913Z,21.30
2018-04-23T00:31:51.205Z,21.30
2018-04-23T00:34:19.481Z,21.30
2018-04-23T00:36:47.734Z,21.10
2018-04-23T00:39:15.999Z,21.00
2018-04-23T00:41:44.251Z,20.90
2018-04-23T00:44:13.361Z,20.90
2018-04-23T00:46:41.554Z,20.90
2018-04-23T00:49:09.805Z,21.00
2018-04-23T00:51:38.069Z,21.00
2018-04-23T00:54:07.079Z,20.90
2018-04-23T00:56:35.352Z,20.90
2018-04-23T00:59:03.599Z,20.90
2018-04-23T01:01:32.630Z,20.70
2018-04-23T01:04:00.882Z,20.70
2018-04-23T01:06:29.906Z,20.70
2018-04-23T01:08:58.159Z,20.70
2018-04-23T01:11:26.422Z,20.70
2018-04-23T01:13:55.433Z,20.80
2018-04-23T01:16:23.699Z,20.70
2018-04-23T01:18:52.723Z,20.70
2018-04-23T01:21:20.949Z,20.70
2018-04-23T01:23:49.211Z,20.70
2018-04-23T01:26:18.394Z,20.60
2018-04-23T01:28:46.670Z,20.60
2018-04-23T01:31:15.702Z,20.80
2018-04-23T01:33:44.724Z,20.70
2018-04-23T01:36:12.979Z,20.70
2018-04-23T01:38:41.277Z,20.70
2018-04-23T01:41:09.518Z,20.70
2018-04-23T01:43:37.771Z,20.70
2018-04-23T01:46:06.040Z,20.70
2018-04-23T01:48:34.278Z,20.60
2018-04-23T01:51:02.552Z,20.60
2018-04-23T01:53:30.783Z,20.60
2018-04-23T01:55:59.043Z,20.70
2018-04-23T01:58:27.289Z,20.50
2018-04-23T02:00:55.585Z,20.60
2018-04-23T02:03:23.847Z,20.60
2018-04-23T02:05:52.109Z,20.50
2018-04-23T02:08:20.369Z,20.50
2018-04-23T02:10:49.416Z,20.30
2018-04-23T02:13:17.672Z,20.30
2018-04-23T02:15:45.935Z,20.30
2018-04-23T02:18:14.169Z,20.30
2018-04-23T02:20:42.426Z,20.30
2018-04-23T02:23:10.684Z,20.20
2018-04-23T02:25:38.950Z,20.30
2018-04-23T02:28:07.223Z,20.40
2018-04-23T02:30:35.470Z,20.30
2018-04-23T02:33:04.493Z,20.40
2018-04-23T02:35:32.741Z,20.40
2018-04-23T02:38:01.780Z,20.40
2018-04-23T02:40:30.014Z,20.40
2018-04-23T02:42:58.282Z,20.50
2018-04-23T02:45:27.312Z,20.50
2018-04-23T02:47:55.583Z,20.50
2018-04-23T02:50:23.838Z,20.50
2018-04-23T02:52:52.100Z,20.40
2018-04-23T02:55:21.139Z,20.40
2018-04-23T02:57:49.411Z,20.30
2018-04-23T03:00:17.663Z,20.40
2018-04-23T03:02:45.918Z,20.40
2018-04-23T03:05:14.951Z,20.40
2018-04-23T03:07:43.203Z,20.40
2018-04-23T03:10:12.218Z,20.20
2018-04-23T03:12:40.465Z,20.20
2018-04-23T03:15:09.505Z,20.20
2018-04-23T03:17:37.783Z,20.10
2018-04-23T03:20:06.043Z,20.20
2018-04-23T03:22:34.297Z,20.30
2018-04-23T03:25:02.552Z,20.40
2018-04-23T03:27:31.586Z,20.40
2018-04-23T03:29:59.835Z,20.40
2018-04-23T03:32:28.863Z,20.50
2018-04-23T03:34:57.103Z,20.40
2018-04-23T03:37:26.127Z,20.40
2018-04-23T03:39:54.373Z,20.30
2018-04-23T03:42:23.405Z,20.30
2018-04-23T03:44:51.658Z,20.20
2018-04-23T03:47:19.932Z,20.20
2018-04-23T03:49:48.171Z,20.30
2018-04-23T03:52:16.417Z,20.20
2018-04-23T03:54:44.693Z,20.30
2018-04-23T03:57:12.962Z,20.20
2018-04-23T03:59:41.215Z,20.30
2018-04-23T04:02:09.480Z,20.40
2018-04-23T04:04:38.512Z,20.30
2018-04-23T04:07:06.770Z,20.30
2018-04-23T04:09:35.024Z,20.30
2018-04-23T04:12:15.198Z,20.40
2018-04-23T04:14:55.230Z,20.30
2018-04-23T04:20:35.124Z,20.20
2018-04-23T04:23:03.383Z,20.20
2018-04-23T04:25:31.679Z,20.20
2018-04-23T04:27:59.954Z,20.20
2018-04-23T04:30:28.232Z,20.20
2018-04-23T04:32:56.491Z,20.20
2018-04-23T04:35:24.798Z,20.30
2018-04-23T04:37:52.991Z,20.30
2018-04-23T04:40:21.251Z,20.40
2018-04-23T04:42:49.530Z,20.40
2018-04-23T04:45:17.814Z,20.30
2018-04-23T04:47:46.053Z,20.20
2018-04-23T04:50:14.325Z,20.30
2018-04-23T04:52:42.577Z,20.30
2018-04-23T04:55:11.594Z,20.20
2018-04-23T04:57:39.850Z,20.20
2018-04-23T05:00:08.899Z,20.30
2018-04-23T05:02:37.162Z,20.30
2018-04-23T05:05:05.393Z,20.30
2018-04-23T05:07:34.410Z,20.30
2018-04-23T05:10:02.657Z,20.30
2018-04-23T05:12:31.720Z,20.20
2018-04-23T05:14:59.977Z,20.10
2018-04-23T05:17:28.250Z,20.30
2018-04-23T05:19:56.498Z,20.30
2018-04-23T05:22:24.769Z,20.30
2018-04-23T05:24:53.795Z,20.40
2018-04-23T05:27:22.050Z,20.40
2018-04-23T05:29:50.303Z,20.60
2018-04-23T05:32:19.335Z,20.90
2018-04-23T05:34:47.587Z,20.80
2018-04-23T05:37:16.613Z,21.00
2018-04-23T05:39:44.850Z,21.00
2018-04-23T05:42:13.907Z,20.90
2018-04-23T05:44:42.156Z,20.90
2018-04-23T05:47:10.409Z,20.90
2018-04-23T05:49:38.699Z,21.10
2018-04-23T05:52:06.953Z,21.20
2018-04-23T05:54:35.240Z,21.30
2018-04-23T05:57:03.481Z,21.20
2018-04-23T05:59:31.723Z,21.20
2018-04-23T06:02:00.007Z,20.90
2018-04-23T06:04:28.267Z,20.90
2018-04-23T06:06:56.562Z,20.90
2018-04-23T06:09:24.839Z,20.90
2018-04-23T06:11:53.107Z,20.90
2018-04-23T06:14:21.430Z,20.70
2018-04-23T06:16:49.635Z,20.70
2018-04-23T06:19:17.890Z,20.70
2018-04-23T06:21:46.918Z,20.80
2018-04-23T06:24:15.161Z,20.70
2018-04-23T06:26:43.434Z,20.80
2018-04-23T06:29:12.460Z,20.90
2018-04-23T06:31:40.759Z,20.80
2018-04-23T06:34:09.004Z,20.90
2018-04-23T06:36:37.313Z,20.90
2018-04-23T06:39:06.494Z,21.00
2018-04-23T06:41:34.784Z,21.00
2018-04-23T06:44:03.042Z,21.00
2018-04-23T06:46:31.321Z,21.10
2018-04-23T06:48:59.692Z,21.20
2018-04-23T06:51:27.983Z,21.20
2018-04-23T06:53:56.254Z,21.20
2018-04-23T06:56:24.522Z,21.30
2018-04-23T06:58:53.234Z,21.30
2018-04-23T07:01:22.254Z,21.50
2018-04-23T07:03:50.579Z,21.80
2018-04-23T07:06:19.249Z,21.90
2018-04-23T07:08:47.539Z,22.00
2018-04-23T07:11:15.802Z,22.30
2018-04-23T07:13:44.068Z,22.70
2018-04-23T07:16:13.088Z,23.00
2018-04-23T07:18:41.336Z,23.00
2018-04-23T07:21:09.607Z,22.80
2018-04-23T07:23:37.888Z,22.50
2018-04-23T07:26:06.913Z,23.30
2018-04-23T07:28:35.198Z,23.30
2018-04-23T07:31:03.497Z,25.10
2018-04-23T07:33:31.774Z,26.50
2018-04-23T07:36:00.027Z,26.80
2018-04-23T07:38:28.290Z,26.50
2018-04-23T07:40:56.618Z,25.80
2018-04-23T07:43:24.853Z,24.90
2018-04-23T07:45:53.149Z,24.70
2018-04-23T07:48:22.187Z,24.50
2018-04-23T07:50:51.253Z,24.10
2018-04-23T07:53:19.530Z,24.10
2018-04-23T07:55:47.821Z,24.10
2018-04-23T07:58:16.877Z,23.50
2018-04-23T08:00:45.134Z,23.50
2018-04-23T08:03:13.433Z,23.40
2018-04-23T08:05:41.671Z,23.10
2018-04-23T08:08:09.974Z,23.10
2018-04-23T08:10:38.235Z,23.20
2018-04-23T08:13:06.534Z,23.50
2018-04-23T08:15:34.785Z,23.40
2018-04-23T08:18:03.054Z,23.20
2018-04-23T08:20:31.410Z,22.80
2018-04-23T08:23:00.419Z,21.60
2018-04-23T08:25:28.715Z,21.60
2018-04-23T08:27:56.974Z,21.70
2018-04-23T08:30:25.987Z,21.80
2018-04-23T08:32:54.969Z,21.80
2018-04-23T08:35:23.279Z,21.70
2018-04-23T08:37:51.569Z,21.60
2018-04-23T08:40:19.823Z,21.40
2018-04-23T08:42:48.125Z,21.10
2018-04-23T08:45:16.393Z,20.80
2018-04-23T08:47:44.643Z,20.70
2018-04-23T08:50:12.928Z,20.60
2018-04-23T08:52:41.206Z,20.40
2018-04-23T08:55:09.479Z,20.30
2018-04-23T08:57:37.753Z,20.40
2018-04-23T09:00:06.052Z,20.40
2018-04-23T09:02:34.256Z,20.30
2018-04-23T09:05:03.306Z,20.50
2018-04-23T09:07:31.696Z,20.50
2018-04-23T09:09:59.991Z,20.60
2018-04-23T09:12:28.260Z,20.50
2018-04-23T09:14:56.534Z,20.60
2018-04-23T09:17:25.005Z,20.80
2018-04-23T09:19:53.304Z,21.00
2018-04-23T09:22:21.601Z,21.10
2018-04-23T09:24:49.955Z,21.10
2018-04-23T09:27:18.193Z,21.00
2018-04-23T09:29:46.544Z,21.20
2018-04-23T09:32:14.814Z,21.20
2018-04-23T09:34:43.089Z,21.30
2018-04-23T09:37:11.355Z,21.20
2018-04-23T09:39:39.605Z,21.20
2018-04-23T09:42:07.884Z,21.20
2018-04-23T09:44:36.319Z,21.40
2018-04-23T09:47:04.439Z,21.50
2018-04-23T09:49:32.861Z,21.70
2018-04-23T09:52:01.887Z,21.90
2018-04-23T09:54:30.166Z,21.90
2018-04-23T09:56:58.446Z,21.90
2018-04-23T09:59:26.706Z,21.90
2018-04-23T10:01:54.960Z,22.10
2018-04-23T10:04:23.247Z,22.30
2018-04-23T10:06:51.496Z,22.50
2018-04-23T10:09:20.533Z,22.50
2018-04-23T10:11:48.839Z,22.50
2018-04-23T10:14:17.089Z,22.60
2018-04-23T10:16:45.520Z,22.40
2018-04-23T10:19:14.671Z,22.40
2018-04-23T10:21:42.897Z,22.40
2018-04-23T10:24:12.749Z,22.50
2018-04-23T10:26:41.045Z,22.40
2018-04-23T10:29:09.294Z,22.20
2018-04-23T10:31:37.602Z,22.00
2018-04-23T10:34:05.859Z,21.90
2018-04-23T10:36:34.255Z,21.80
2018-04-23T10:39:02.597Z,21.50
2018-04-23T10:41:31.622Z,21.30
2018-04-23T10:43:59.898Z,20.90
2018-04-23T10:46:28.181Z,21.00
2018-04-23T10:48:56.464Z,20.90
2018-04-23T10:51:24.724Z,20.90
2018-04-23T10:53:52.989Z,20.90
2018-04-23T10:56:21.244Z,20.90
2018-04-23T10:58:49.657Z,20.80
2018-04-23T11:01:17.901Z,21.00
2018-04-23T11:03:46.161Z,21.00
2018-04-23T11:06:15.179Z,21.00
2018-04-23T11:08:43.429Z,21.00
2018-04-23T11:11:12.331Z,21.00
2018-04-23T11:13:40.586Z,21.10
2018-04-23T11:16:09.624Z,21.10
2018-04-23T11:18:38.191Z,21.10
2018-04-23T11:21:06.472Z,21.10
2018-04-23T11:23:34.724Z,21.30
2018-04-23T11:26:03.019Z,21.50
2018-04-23T11:28:31.263Z,21.50
2018-04-23T11:31:00.314Z,21.60
2018-04-23T11:33:28.608Z,21.60
2018-04-23T11:35:56.903Z,21.60
2018-04-23T11:38:25.277Z,21.50
2018-04-23T11:40:53.546Z,21.30
2018-04-23T11:43:21.826Z,21.30
2018-04-23T11:45:50.066Z,21.40
2018-04-23T11:48:18.363Z,21.50
2018-04-23T11:50:46.622Z,21.20
2018-04-23T11:53:14.886Z,21.10
2018-04-23T11:55:43.146Z,21.30
2018-04-23T11:58:11.407Z,21.50
2018-04-23T12:00:39.774Z,21.50
2018-04-23T12:03:08.130Z,21.40
2018-04-23T12:05:36.418Z,21.40
2018-04-23T12:08:04.772Z,21.40
2018-04-23T12:10:33.172Z,21.30
2018-04-23T12:13:02.304Z,21.30
2018-04-23T12:15:31.312Z,21.00
2018-04-23T12:17:59.595Z,21.00
2018-04-23T12:20:27.835Z,21.00
2018-04-23T12:22:56.892Z,20.60
2018-04-23T12:25:25.150Z,20.50
2018-04-23T12:27:53.407Z,20.50
2018-04-23T12:30:21.658Z,20.30
2018-04-23T12:32:50.716Z,20.20
2018-04-23T12:35:19.042Z,20.10
2018-04-23T12:37:47.315Z,20.20
2018-04-23T12:40:15.642Z,20.30
2018-04-23T12:42:43.957Z,20.00
2018-04-23T12:45:12.238Z,20.20
2018-04-23T12:47:41.272Z,20.20
2018-04-23T12:50:09.556Z,20.20
2018-04-23T12:52:37.810Z,19.90
2018-04-23T12:55:06.111Z,19.90
2018-04-23T12:57:34.456Z,19.90
2018-04-23T13:00:02.748Z,19.90
2018-04-23T13:02:31.027Z,19.90
2018-04-23T13:04:59.337Z,19.80
2018-04-23T13:07:27.631Z,19.80
2018-04-23T13:09:56.657Z,19.80
2018-04-23T13:12:24.936Z,19.80
2018-04-23T13:14:53.271Z,19.80
2018-04-23T13:17:21.568Z,19.40
2018-04-23T13:19:49.807Z,19.70
2018-04-23T13:22:18.151Z,19.80
2018-04-23T13:24:46.431Z,19.90
2018-04-23T13:27:14.689Z,20.20
2018-04-23T13:29:42.953Z,20.50
2018-04-23T13:32:11.264Z,20.60
2018-04-23T13:34:39.528Z,20.70
2018-04-23T13:37:07.851Z,20.20
2018-04-23T13:39:36.123Z,20.10
2018-04-23T13:42:04.444Z,20.20
2018-04-23T13:44:33.468Z,20.70
2018-04-23T13:47:01.739Z,20.60
2018-04-23T13:49:29.980Z,20.90
2018-04-23T13:51:59.016Z,21.50
2018-04-23T13:54:27.289Z,21.50
2018-04-23T13:56:55.562Z,21.60
2018-04-23T13:59:23.859Z,21.50
2018-04-23T14:01:52.144Z,21.90
2018-04-23T14:04:20.487Z,22.10
2018-04-23T14:06:48.905Z,22.10
2018-04-23T14:09:17.788Z,22.10
2018-04-23T14:11:46.060Z,22.00
2018-04-23T14:14:14.307Z,21.60
2018-04-23T14:16:42.617Z,21.70
2018-04-23T14:19:10.898Z,21.50
2018-04-23T14:21:39.154Z,21.50
2018-04-23T14:24:07.516Z,21.20
2018-04-23T14:26:36.629Z,21.30
2018-04-23T14:29:04.924Z,21.50
2018-04-23T14:31:33.202Z,21.30
2018-04-23T14:34:01.607Z,21.30
2018-04-23T14:36:29.881Z,21.40
2018-04-23T14:38:58.150Z,21.30
2018-04-23T14:41:26.489Z,21.30
2018-04-23T14:43:54.787Z,21.30
2018-04-23T14:46:23.083Z,21.30
2018-04-23T14:48:51.385Z,21.20
2018-04-23T14:51:20.395Z,21.00
2018-04-23T14:53:48.682Z,21.00
2018-04-23T14:56:16.959Z,21.00
2018-04-23T14:58:45.260Z,21.20
2018-04-23T15:01:13.492Z,21.10
2018-04-23T15:03:41.779Z,21.20
2018-04-23T15:06:10.122Z,21.20
2018-04-23T15:08:38.710Z,21.30
2018-04-23T15:11:07.738Z,21.00
2018-04-23T15:13:36.032Z,21.00
2018-04-23T15:16:04.274Z,20.80
2018-04-23T15:18:32.527Z,20.70
2018-04-23T15:21:01.593Z,20.80
2018-04-23T15:23:29.852Z,20.80
2018-04-23T15:25:58.131Z,20.90
2018-04-23T15:28:26.382Z,20.80
2018-04-23T15:30:54.651Z,20.80
2018-04-23T15:33:23.068Z,20.60
2018-04-23T15:35:51.317Z,20.50
2018-04-23T15:38:19.580Z,20.30
2018-04-23T15:40:47.885Z,20.30
2018-04-23T15:43:16.162Z,20.20
2018-04-23T15:45:44.423Z,20.20
2018-04-23T15:48:12.702Z,20.20
2018-04-23T15:50:40.968Z,20.00
2018-04-23T15:53:09.256Z,20.00
2018-04-23T15:55:37.526Z,20.20
2018-04-23T15:58:05.829Z,20.40
2018-04-23T16:00:34.843Z,20.20
2018-04-23T16:03:03.120Z,20.10
2018-04-23T16:05:31.367Z,20.20
2018-04-23T16:08:00.410Z,20.20
2018-04-23T16:10:29.483Z,20.10
2018-04-23T16:12:57.851Z,20.00
2018-04-23T16:15:26.105Z,20.10
2018-04-23T16:17:54.355Z,20.10
2018-04-23T16:20:22.661Z,20.00
2018-04-23T16:22:50.911Z,20.00
2018-04-23T16:25:19.212Z,20.00
2018-04-23T16:27:47.474Z,19.90
2018-04-23T16:30:15.779Z,19.90
2018-04-23T16:32:44.046Z,19.80
2018-04-23T16:35:12.329Z,19.90
2018-04-23T16:37:40.592Z,20.00
2018-04-23T16:40:08.869Z,19.90
2018-04-23T16:42:37.365Z,19.90
2018-04-23T16:45:05.613Z,19.90
2018-04-23T16:47:33.887Z,20.00
2018-04-23T16:50:02.135Z,20.00
2018-04-23T16:52:31.178Z,19.90
2018-04-23T16:54:59.615Z,19.90
2018-04-23T16:57:28.760Z,20.00
2018-04-23T16:59:57.022Z,19.90
2018-04-23T17:02:25.307Z,19.80
2018-04-23T17:04:53.586Z,19.80
2018-04-23T17:07:21.864Z,19.70
2018-04-23T17:09:50.165Z,19.80
2018-04-23T17:12:18.410Z,19.70
2018-04-23T17:14:46.696Z,19.60
2018-04-23T17:17:14.964Z,19.70
2018-04-23T17:19:44.022Z,19.70
2018-04-23T17:22:12.397Z,19.70
2018-04-23T17:24:41.557Z,19.60
2018-04-23T17:27:09.838Z,19.60
2018-04-23T17:29:38.123Z,19.70
2018-04-23T17:32:07.143Z,19.70
2018-04-23T17:34:35.418Z,19.60
2018-04-23T17:37:03.683Z,19.70
2018-04-23T17:39:32.721Z,19.60
2018-04-23T17:42:00.991Z,19.60
2018-04-23T17:44:29.271Z,19.60
2018-04-23T17:46:58.157Z,19.60
2018-04-23T17:49:26.404Z,19.50
2018-04-23T17:51:55.449Z,19.30
2018-04-23T17:54:23.715Z,19.30
2018-04-23T17:56:51.977Z,19.20
2018-04-23T17:59:20.237Z,19.20
2018-04-23T18:01:49.465Z,19.20
2018-04-23T18:04:17.763Z,19.10
2018-04-23T18:06:46.017Z,19.00
2018-04-23T18:09:14.321Z,19.10
2018-04-23T18:11:42.596Z,19.20
2018-04-23T18:14:10.855Z,19.20
2018-04-23T18:16:39.134Z,19.20
2018-04-23T18:19:08.857Z,19.30
2018-04-23T18:21:37.159Z,19.30
2018-04-23T18:24:06.213Z,19.10
2018-04-23T18:26:34.479Z,19.10
2018-04-23T18:29:02.755Z,19.20
2018-04-23T18:31:31.074Z,19.20
2018-04-23T18:33:59.345Z,19.10
2018-04-23T18:36:27.601Z,19.00
2018-04-23T18:38:55.895Z,19.00
2018-04-23T18:41:24.247Z,18.80
2018-04-23T18:43:52.530Z,19.00
2018-04-23T18:46:21.750Z,19.00
2018-04-23T18:48:50.033Z,19.00
2018-04-23T18:51:18.357Z,19.10
2018-04-23T18:53:46.677Z,18.90
2018-04-23T18:56:15.033Z,18.90
2018-04-23T18:58:43.318Z,19.00
2018-04-23T19:01:11.648Z,18.90
2018-04-23T19:03:40.684Z,18.80
2018-04-23T19:06:08.978Z,18.80
2018-04-23T19:08:38.128Z,18.90
2018-04-23T19:11:06.429Z,18.90
2018-04-23T19:13:34.767Z,18.90
2018-04-23T19:16:03.863Z,18.90
2018-04-23T19:18:32.156Z,18.90
2018-04-23T19:21:00.463Z,19.00
2018-04-23T19:23:28.773Z,19.00
2018-04-23T19:25:59.197Z,18.90
2018-04-23T19:28:27.517Z,18.90
2018-04-23T19:30:55.770Z,19.00
2018-04-23T19:33:24.282Z,18.90
2018-04-23T19:35:52.589Z,18.90
2018-04-23T19:38:20.910Z,18.90
2018-04-23T19:40:49.933Z,18.80
2018-04-23T19:43:18.261Z,18.70
2018-04-23T19:45:46.571Z,18.80
2018-04-23T19:48:14.895Z,18.80
2018-04-23T19:50:43.148Z,18.70
2018-04-23T19:53:11.438Z,18.80
2018-04-23T19:55:39.806Z,18.80
2018-04-23T19:58:08.125Z,18.80
2018-04-23T20:00:36.452Z,18.70
2018-04-23T20:03:05.508Z,18.70
2018-04-23T20:05:34.561Z,18.60
2018-04-23T20:08:02.845Z,18.60
2018-04-23T20:10:31.126Z,18.60
2018-04-23T20:12:59.390Z,18.60
2018-04-23T20:15:28.587Z,18.60
2018-04-23T20:17:56.899Z,18.50
2018-04-23T20:20:25.168Z,18.40
2018-04-23T20:22:53.467Z,18.40
2018-04-23T20:25:22.519Z,18.40
2018-04-23T20:27:50.756Z,18.40
2018-04-23T20:30:19.070Z,18.40
2018-04-23T20:32:47.455Z,18.40
2018-04-23T20:35:15.724Z,18.30
2018-04-23T20:37:44.005Z,18.20
2018-04-23T20:40:12.349Z,18.20
2018-04-23T20:42:40.641Z,18.20
2018-04-23T20:45:08.927Z,18.20
2018-04-23T20:47:37.208Z,18.10
2018-04-23T20:50:05.504Z,18.10
2018-04-23T20:52:33.804Z,18.10
2018-04-23T20:55:02.847Z,18.00
2018-04-23T20:57:31.178Z,18.00
2018-04-23T20:59:59.427Z,18.00
2018-04-23T21:02:27.755Z,18.00
2018-04-23T21:04:56.103Z,18.00
2018-04-23T21:07:24.385Z,17.90
2018-04-23T21:09:52.662Z,18.00
2018-04-23T21:12:20.903Z,18.00
2018-04-23T21:14:49.189Z,18.00
2018-04-23T21:17:17.469Z,18.10
2018-04-23T21:19:46.240Z,18.10
2018-04-23T21:22:14.582Z,18.10
2018-04-23T21:24:42.867Z,18.00
2018-04-23T21:27:11.138Z,18.00
2018-04-23T21:29:39.439Z,18.00
2018-04-23T21:32:07.713Z,17.90
2018-04-23T21:34:35.965Z,18.00
2018-04-23T21:37:04.293Z,17.90
2018-04-23T21:39:32.541Z,18.00
2018-04-23T21:42:00.835Z,17.90
2018-04-23T21:44:29.087Z,17.90
2018-04-23T21:46:57.383Z,17.80
2018-04-23T21:49:26.731Z,17.70
2018-04-23T21:51:55.009Z,17.70
2018-04-23T21:54:23.271Z,17.60
2018-04-23T21:56:52.347Z,17.50
2018-04-23T21:59:21.386Z,17.50
2018-04-23T22:01:49.672Z,17.40
2018-04-23T22:04:18.016Z,17.30
2018-04-23T22:06:47.052Z,17.40
2018-04-23T22:09:15.309Z,17.30
2018-04-23T22:11:44.125Z,17.40
2018-04-23T22:14:13.117Z,17.20
2018-04-23T22:16:41.394Z,17.20
2018-04-23T22:19:09.669Z,17.10
2018-04-23T22:21:38.059Z,17.10
2018-04-23T22:24:06.326Z,17.20
2018-04-23T22:26:34.586Z,17.20
2018-04-23T22:29:02.855Z,17.20
2018-04-23T22:31:31.112Z,16.80
2018-04-23T22:33:59.375Z,16.90
2018-04-23T22:36:27.638Z,17.00
2018-04-23T22:38:56.670Z,16.90
2018-04-23T22:41:24.951Z,16.90
2018-04-23T22:43:53.223Z,16.90
2018-04-23T22:46:21.518Z,16.90
2018-04-23T22:48:49.793Z,16.90
2018-04-23T22:51:18.067Z,16.90
2018-04-23T22:53:46.340Z,16.90
2018-04-23T22:56:14.596Z,16.90
2018-04-23T22:58:42.881Z,16.80
2018-04-23T23:01:11.204Z,16.70
2018-04-23T23:03:39.430Z,16.70
2018-04-23T23:06:07.717Z,16.70
2018-04-23T23:08:35.987Z,16.70
2018-04-23T23:11:04.315Z,16.60
2018-04-23T23:13:32.558Z,16.60
2018-04-23T23:16:00.873Z,16.60
2018-04-23T23:18:29.350Z,16.60
2018-04-23T23:20:57.637Z,16.60
2018-04-23T23:23:25.871Z,16.50
2018-04-23T23:25:54.151Z,16.50
2018-04-23T23:28:22.414Z,16.50
2018-04-23T23:30:50.719Z,16.50
2018-04-23T23:33:18.988Z,16.50
2018-04-23T23:35:47.296Z,16.50
2018-04-23T23:38:15.556Z,16.50
2018-04-23T23:40:43.936Z,16.50
2018-04-23T23:43:12.177Z,16.40
2018-04-23T23:45:40.459Z,16.40
2018-04-23T23:48:08.715Z,16.40
2018-04-23T23:50:37.195Z,16.40
2018-04-23T23:53:05.463Z,16.30
2018-04-23T23:55:33.711Z,16.30
2018-04-23T23:58:02.773Z,16.20
